createdAt,value
2019-02-19T00:00:59.824Z,-2.59
2019-02-19T00:06:17.239Z,-2.66
2019-02-19T00:11:35.625Z,-2.56
2019-02-19T00:16:52.891Z,-2.84
2019-02-19T00:22:12.439Z,-2.63
2019-02-19T00:27:30.308Z,-2.58
2019-02-19T00:32:47.570Z,-2.76
2019-02-19T00:38:06.355Z,-2.66
2019-02-19T00:43:29.131Z,-2.68
2019-02-19T00:48:47.259Z,-2.81
2019-02-19T00:54:04.591Z,-2.69
2019-02-19T00:59:22.015Z,-2.83
2019-02-19T01:04:39.530Z,-2.91
2019-02-19T01:09:57.166Z,-2.90
2019-02-19T01:15:14.619Z,-2.89
2019-02-19T01:20:31.860Z,-2.91
2019-02-19T01:25:49.811Z,-2.96
2019-02-19T01:31:07.478Z,-3.03
2019-02-19T01:36:25.015Z,-2.96
2019-02-19T01:41:42.363Z,-2.91
2019-02-19T01:46:59.994Z,-2.91
2019-02-19T01:52:18.270Z,-3.07
2019-02-19T01:57:36.003Z,-3.02
2019-02-19T02:02:54.322Z,-3.17
2019-02-19T02:08:11.859Z,-3.22
2019-02-19T02:13:30.052Z,-2.91
2019-02-19T02:18:47.754Z,-2.98
2019-02-19T02:24:05.870Z,-3.24
2019-02-19T02:29:24.192Z,-3.32
2019-02-19T02:34:41.471Z,-3.38
2019-02-19T02:39:59.150Z,-3.51
2019-02-19T02:45:17.142Z,-3.30
2019-02-19T02:50:34.695Z,-3.36
2019-02-19T02:55:53.471Z,-3.38
2019-02-19T03:01:11.301Z,-3.56
2019-02-19T03:07:03.246Z,-3.62
2019-02-19T03:12:20.958Z,-3.50
2019-02-19T03:17:38.641Z,-3.43
2019-02-19T03:22:56.546Z,-3.49
2019-02-19T03:28:13.995Z,-3.70
2019-02-19T03:33:31.336Z,-3.68
2019-02-19T03:38:48.923Z,-3.64
2019-02-19T03:44:07.155Z,-3.70
2019-02-19T03:49:24.526Z,-3.72
2019-02-19T03:54:43.048Z,-3.81
2019-02-19T04:00:00.401Z,-3.92
2019-02-19T04:05:17.786Z,-3.97
2019-02-19T04:10:38.263Z,-3.91
2019-02-19T04:15:55.996Z,-3.97
2019-02-19T04:21:13.484Z,-4.00
2019-02-19T04:26:31.767Z,-4.04
2019-02-19T04:31:48.993Z,-4.02
2019-02-19T04:37:06.273Z,-4.05
2019-02-19T04:42:24.096Z,-4.00
2019-02-19T04:47:43.684Z,-3.98
2019-02-19T04:53:01.915Z,-4.08
2019-02-19T04:58:21.006Z,-4.15
2019-02-19T05:03:38.486Z,-4.09
2019-02-19T05:08:56.296Z,-4.16
2019-02-19T05:14:13.898Z,-4.15
2019-02-19T05:19:31.688Z,-4.18
2019-02-19T05:24:49.997Z,-4.24
2019-02-19T05:30:07.623Z,-4.30
2019-02-19T05:35:25.515Z,-4.20
2019-02-19T05:40:43.484Z,-4.13
2019-02-19T05:46:02.485Z,-4.15
2019-02-19T05:51:20.115Z,-4.15
2019-02-19T05:56:37.595Z,-4.09
2019-02-19T06:01:56.017Z,-4.09
2019-02-19T06:07:13.406Z,-4.07
2019-02-19T06:12:30.959Z,-4.14
2019-02-19T06:17:48.245Z,-4.00
2019-02-19T06:23:06.000Z,-3.99
2019-02-19T06:28:23.559Z,-4.00
2019-02-19T06:33:41.049Z,-3.86
2019-02-19T06:38:58.288Z,-3.88
2019-02-19T06:44:15.920Z,-3.71
2019-02-19T06:49:33.273Z,-3.57
2019-02-19T06:54:51.257Z,-3.43
2019-02-19T07:00:09.355Z,-3.36
2019-02-19T07:05:26.460Z,-3.11
2019-02-19T07:10:44.478Z,-2.79
2019-02-19T07:16:02.470Z,-2.63
2019-02-19T07:21:20.603Z,-2.41
2019-02-19T07:26:39.731Z,-2.15
2019-02-19T07:31:57.287Z,-1.91
2019-02-19T07:37:15.734Z,-1.67
2019-02-19T07:42:32.876Z,-1.30
2019-02-19T07:47:50.224Z,-1.07
2019-02-19T07:53:08.336Z,-0.77
2019-02-19T07:58:25.503Z,-0.50
2019-02-19T08:03:43.432Z,-0.30
2019-02-19T08:09:01.486Z,0.02
2019-02-19T08:14:19.124Z,0.41
2019-02-19T08:19:38.508Z,0.77
2019-02-19T08:24:55.909Z,1.24
2019-02-19T08:30:13.560Z,1.73
2019-02-19T08:35:30.977Z,2.23
2019-02-19T08:40:48.915Z,2.75
2019-02-19T08:46:06.599Z,3.34
2019-02-19T08:51:24.566Z,4.53
2019-02-19T08:56:42.385Z,5.59
2019-02-19T09:01:59.495Z,6.32
2019-02-19T09:07:17.509Z,7.02
2019-02-19T09:12:35.286Z,7.36
2019-02-19T09:17:52.780Z,7.98
2019-02-19T09:23:10.456Z,8.42
2019-02-19T09:28:28.726Z,8.71
2019-02-19T09:33:46.746Z,8.98
2019-02-19T09:39:05.234Z,9.21
2019-02-19T09:44:22.568Z,9.50
2019-02-19T09:49:40.306Z,9.77
2019-02-19T09:54:58.861Z,10.02
2019-02-19T10:00:17.191Z,10.20
2019-02-19T10:05:34.951Z,10.42
2019-02-19T10:10:52.882Z,10.72
2019-02-19T10:16:10.809Z,10.77
2019-02-19T10:21:28.477Z,11.00
2019-02-19T10:26:46.183Z,11.27
2019-02-19T10:32:03.726Z,11.61
2019-02-19T10:37:21.412Z,11.71
2019-02-19T10:42:39.193Z,11.72
2019-02-19T10:47:56.687Z,12.42
2019-02-19T10:53:14.494Z,12.86
2019-02-19T10:58:32.569Z,13.35
2019-02-19T11:03:50.795Z,13.72
2019-02-19T11:09:08.419Z,16.51
2019-02-19T11:14:26.197Z,16.18
2019-02-19T11:19:44.075Z,16.16
2019-02-19T11:25:02.038Z,16.16
2019-02-19T11:30:20.437Z,16.14
2019-02-19T11:35:37.766Z,16.19
2019-02-19T11:40:55.812Z,16.66
2019-02-19T11:46:13.630Z,18.21
2019-02-19T11:51:31.576Z,19.06
2019-02-19T11:56:49.999Z,20.81
2019-02-19T12:02:11.469Z,21.62
2019-02-19T12:07:29.129Z,21.09
2019-02-19T12:12:47.692Z,24.06
2019-02-19T12:18:05.486Z,23.79
2019-02-19T12:23:23.337Z,22.43
2019-02-19T12:28:40.789Z,24.30
2019-02-19T12:33:59.511Z,25.51
2019-02-19T12:39:17.261Z,23.57
2019-02-19T12:44:34.618Z,22.51
2019-02-19T12:49:52.796Z,21.51
2019-02-19T12:55:10.947Z,19.84
2019-02-19T13:00:28.829Z,20.56
2019-02-19T13:05:46.293Z,20.75
2019-02-19T13:11:04.017Z,22.48
2019-02-19T13:16:21.829Z,21.13
2019-02-19T13:21:40.088Z,20.32
2019-02-19T13:26:58.670Z,20.38
2019-02-19T13:32:16.505Z,21.79
2019-02-19T13:37:34.302Z,22.26
2019-02-19T13:42:51.616Z,20.77
2019-02-19T13:48:09.858Z,21.19
2019-02-19T13:53:49.237Z,20.93
2019-02-19T13:59:07.249Z,20.94
2019-02-19T14:04:25.021Z,21.28
2019-02-19T14:09:42.277Z,20.37
2019-02-19T14:15:05.711Z,19.85
2019-02-19T14:21:00.381Z,20.18
2019-02-19T14:26:37.028Z,20.93
2019-02-19T14:32:14.332Z,21.13
2019-02-19T14:37:51.000Z,19.67
2019-02-19T14:43:27.147Z,19.55
2019-02-19T14:49:17.273Z,19.51
2019-02-19T14:55:07.241Z,19.01
2019-02-19T15:00:43.081Z,19.01
2019-02-19T15:06:26.576Z,17.92
2019-02-19T15:11:52.491Z,16.03
2019-02-19T15:17:25.411Z,14.29
2019-02-19T15:23:00.857Z,13.04
2019-02-19T15:28:40.725Z,11.99
2019-02-19T15:34:16.687Z,11.75
2019-02-19T15:40:05.858Z,11.45
2019-02-19T15:45:40.779Z,10.95
2019-02-19T15:51:11.050Z,10.22
2019-02-19T15:56:47.166Z,10.48
2019-02-19T16:02:18.463Z,10.31
2019-02-19T16:07:46.658Z,10.13
2019-02-19T16:13:35.312Z,9.76
2019-02-19T16:19:06.016Z,9.22
2019-02-19T16:24:50.104Z,9.01
2019-02-19T16:30:15.723Z,8.58
2019-02-19T16:35:40.046Z,8.38
2019-02-19T16:41:14.882Z,8.33
2019-02-19T16:46:41.768Z,8.39
2019-02-19T16:52:24.286Z,8.26
2019-02-19T16:57:53.248Z,7.91
2019-02-19T17:03:30.163Z,7.17
2019-02-19T17:09:06.987Z,6.69
2019-02-19T17:14:40.025Z,6.66
2019-02-19T17:20:28.952Z,6.49
2019-02-19T17:25:46.485Z,6.30
2019-02-19T17:31:25.898Z,6.18
2019-02-19T17:36:52.607Z,5.35
2019-02-19T17:42:23.068Z,5.17
2019-02-19T17:48:08.661Z,4.29
2019-02-19T17:53:48.012Z,4.23
2019-02-19T17:59:23.738Z,3.94
2019-02-19T18:04:56.047Z,3.58
2019-02-19T18:10:35.543Z,3.30
2019-02-19T18:16:11.850Z,2.96
2019-02-19T18:21:30.016Z,2.52
2019-02-19T18:26:48.158Z,2.72
2019-02-19T18:32:05.967Z,2.51
2019-02-19T18:37:23.598Z,2.40
2019-02-19T18:42:42.100Z,2.28
2019-02-19T18:48:00.040Z,2.11
2019-02-19T18:53:17.501Z,1.72
2019-02-19T18:58:35.661Z,1.87
2019-02-19T19:03:53.190Z,1.80
2019-02-19T19:09:11.235Z,1.82
2019-02-19T19:14:29.991Z,1.77
2019-02-19T19:19:48.275Z,1.54
2019-02-19T19:25:06.223Z,1.31
2019-02-19T19:30:23.766Z,1.38
2019-02-19T19:35:42.791Z,1.27
2019-02-19T19:41:00.610Z,1.23
2019-02-19T19:46:19.802Z,1.24
2019-02-19T19:51:38.280Z,1.45
2019-02-19T19:56:58.081Z,1.43
2019-02-19T20:02:19.420Z,1.20
2019-02-19T20:07:35.352Z,1.36
2019-02-19T20:12:52.991Z,1.15
2019-02-19T20:18:11.737Z,1.23
2019-02-19T20:23:29.417Z,1.29
2019-02-19T20:28:46.958Z,1.37
2019-02-19T20:34:06.985Z,1.52
2019-02-19T20:39:26.099Z,1.44
2019-02-19T20:44:45.926Z,1.60
2019-02-19T20:50:03.994Z,1.45
2019-02-19T20:55:22.158Z,1.48
2019-02-19T21:00:41.228Z,1.53
2019-02-19T21:05:59.232Z,1.76
2019-02-19T21:11:16.894Z,1.55
2019-02-19T21:16:35.257Z,1.73
2019-02-19T21:21:53.024Z,1.85
2019-02-19T21:27:11.705Z,2.17
2019-02-19T21:32:29.611Z,2.10
2019-02-19T21:37:47.926Z,2.17
2019-02-19T21:43:05.735Z,2.15
2019-02-19T21:48:24.396Z,2.31
2019-02-19T21:53:44.347Z,2.20
2019-02-19T21:59:03.176Z,2.35
2019-02-19T22:04:20.935Z,2.41
2019-02-19T22:09:38.640Z,2.61
2019-02-19T22:14:56.862Z,2.71
2019-02-19T22:20:30.573Z,2.76
2019-02-19T22:25:48.032Z,2.95
2019-02-19T22:31:06.127Z,2.91
2019-02-19T22:36:24.461Z,2.94
2019-02-19T22:41:42.031Z,2.95
2019-02-19T22:46:59.398Z,3.04
2019-02-19T22:52:17.228Z,3.20
2019-02-19T22:57:35.576Z,3.37
2019-02-19T23:02:53.340Z,3.47
2019-02-19T23:08:12.963Z,3.29
2019-02-19T23:13:30.221Z,3.51
2019-02-19T23:18:47.425Z,3.64
2019-02-19T23:24:05.524Z,3.81
2019-02-19T23:29:23.797Z,3.97
2019-02-19T23:34:41.697Z,4.04
2019-02-19T23:39:59.220Z,4.06
2019-02-19T23:45:17.706Z,4.03
2019-02-19T23:50:36.317Z,3.96
2019-02-19T23:55:53.981Z,4.20
